Time;durP1;ratioP1;P1;durP2;ratioP2;P2;SDS_P1;SDS_P2;PMS_P1;PMS_P2;Temp;Humidity;BMP_temperature;BMP_pressure;BME280_temperature;BME280_humidity;BME280_pressure;Samples;Min_cycle;Max_cycle;Signal;HPM_P1;HPM_P2
2022/10/24 00:01:29;;;;;;;11.65;10.55;;;22.70;99.90;;;;;;6244731;27;82804;-65
2022/10/24 00:04:35;;;;;;;11.75;10.55;;;22.70;99.90;;;;;;6257648;27;82679;-64
2022/10/24 00:07:37;;;;;;;12.15;10.70;;;22.70;99.90;;;;;;6254467;27;82777;-65
2022/10/24 00:10:42;;;;;;;12.25;11.05;;;22.70;99.90;;;;;;6259531;27;82799;-65
2022/10/24 00:13:44;;;;;;;12.10;10.90;;;22.70;99.90;;;;;;6265041;27;82693;-64
2022/10/24 00:16:48;;;;;;;12.68;11.30;;;22.70;99.90;;;;;;6256695;27;82638;-64
2022/10/24 00:19:53;;;;;;;12.35;11.07;;;22.60;99.90;;;;;;6256556;27;82734;-65
2022/10/24 00:22:55;;;;;;;12.70;11.40;;;22.60;99.90;;;;;;6257017;27;84108;-64
2022/10/24 00:26:00;;;;;;;12.43;11.15;;;22.60;99.90;;;;;;6245991;27;82698;-65
2022/10/24 00:29:02;;;;;;;12.20;11.00;;;22.60;99.90;;;;;;6257325;27;82717;-64
2022/10/24 00:32:06;;;;;;;12.23;11.02;;;22.60;99.90;;;;;;6257084;27;82780;-65
2022/10/24 00:35:10;;;;;;;12.52;11.32;;;22.60;99.90;;;;;;6247732;27;82700;-65
2022/10/24 00:38:12;;;;;;;12.65;11.35;;;22.60;99.90;;;;;;6243064;27;82778;-64
2022/10/24 00:41:15;;;;;;;12.25;10.95;;;22.60;99.90;;;;;;6256494;27;82788;-65
2022/10/24 00:44:24;;;;;;;12.25;11.07;;;22.60;99.90;;;;;;6254172;27;82752;-64
2022/10/24 00:47:28;;;;;;;12.00;10.75;;;22.60;99.90;;;;;;6250853;27;82815;-65
2022/10/24 00:50:30;;;;;;;11.82;10.68;;;22.60;99.90;;;;;;6246968;27;83001;-65
2022/10/24 00:53:37;;;;;;;12.48;11.27;;;22.60;99.90;;;;;;6253804;27;82757;-65
2022/10/24 00:56:44;;;;;;;11.65;10.48;;;22.60;99.90;;;;;;6254383;27;82773;-65
2022/10/24 00:59:51;;;;;;;11.30;10.30;;;22.50;99.90;;;;;;6262402;27;82663;-65
2022/10/24 01:02:55;;;;;;;11.82;10.73;;;22.50;99.90;;;;;;6250066;27;83995;-64
2022/10/24 01:06:23;;;;;;;11.57;10.38;;;22.50;99.90;;;;;;6260406;27;82694;-65
2022/10/24 01:09:39;;;;;;;12.57;11.23;;;22.50;99.90;;;;;;6250601;27;84008;-65
2022/10/24 01:12:50;;;;;;;12.40;10.93;;;22.50;99.90;;;;;;6261562;27;84002;-65
2022/10/24 01:15:57;;;;;;;11.63;10.52;;;22.50;99.90;;;;;;6260554;27;85825;-64
2022/10/24 01:19:15;;;;;;;11.75;10.65;;;22.50;99.90;;;;;;6251289;27;84762;-64
2022/10/24 01:22:22;;;;;;;12.38;11.27;;;22.50;99.90;;;;;;6257031;27;83998;-65
2022/10/24 01:25:33;;;;;;;12.20;11.02;;;22.50;99.90;;;;;;6249902;27;83672;-65
2022/10/24 01:28:45;;;;;;;11.27;10.27;;;22.50;99.90;;;;;;6272541;27;86176;-64
2022/10/24 01:31:54;;;;;;;12.30;11.05;;;22.50;99.90;;;;;;6235529;27;84026;-65
2022/10/24 01:35:00;;;;;;;12.30;11.20;;;22.50;99.90;;;;;;6258650;27;84973;-64
2022/10/24 01:38:09;;;;;;;11.80;10.68;;;22.50;99.90;;;;;;6259697;27;84225;-64
2022/10/24 01:41:14;;;;;;;11.40;10.30;;;22.50;99.90;;;;;;6251354;27;84041;-65
2022/10/24 01:44:22;;;;;;;12.10;10.90;;;22.50;99.90;;;;;;6246923;27;82860;-64
2022/10/24 01:47:32;;;;;;;11.95;10.75;;;22.50;99.90;;;;;;6260061;27;85205;-65
2022/10/24 01:50:37;;;;;;;12.20;11.10;;;22.50;99.90;;;;;;6255307;27;83226;-65
2022/10/24 01:53:42;;;;;;;12.10;11.00;;;22.50;99.90;;;;;;6259933;27;84043;-65
2022/10/24 01:56:44;;;;;;;11.90;10.80;;;22.50;99.90;;;;;;6251178;27;84717;-65
2022/10/24 01:59:47;;;;;;;12.93;11.68;;;22.50;99.90;;;;;;6256007;27;84076;-65
2022/10/24 02:02:54;;;;;;;12.35;11.25;;;22.50;99.90;;;;;;6259879;27;82943;-65
2022/10/24 02:06:01;;;;;;;11.60;10.52;;;22.40;99.90;;;;;;6259816;27;83965;-65
2022/10/24 02:09:09;;;;;;;12.45;11.25;;;22.40;99.90;;;;;;6258954;27;83564;-65
2022/10/24 02:12:15;;;;;;;12.13;11.02;;;22.40;99.90;;;;;;6257764;27;84046;-65
2022/10/24 02:15:23;;;;;;;12.10;10.90;;;22.40;99.90;;;;;;6260530;27;83694;-65
2022/10/24 02:18:28;;;;;;;12.48;11.27;;;22.40;99.90;;;;;;6259067;27;85055;-65
2022/10/24 02:21:35;;;;;;;12.05;10.95;;;22.40;99.90;;;;;;6262563;27;84424;-65
2022/10/24 02:24:42;;;;;;;12.23;11.13;;;22.40;99.90;;;;;;6263031;27;83604;-65
2022/10/24 02:27:49;;;;;;;12.07;10.98;;;22.40;99.90;;;;;;6241213;27;84017;-68
2022/10/24 02:30:57;;;;;;;12.30;11.10;;;22.40;99.90;;;;;;6238381;27;83976;-65
2022/10/24 02:34:02;;;;;;;12.05;10.90;;;22.40;99.90;;;;;;6251868;27;83999;-65
2022/10/24 02:37:06;;;;;;;11.95;10.85;;;22.40;99.90;;;;;;6254934;27;84106;-65
2022/10/24 02:40:09;;;;;;;12.07;10.95;;;22.40;99.90;;;;;;6262733;27;83335;-65
2022/10/24 02:43:13;;;;;;;12.30;11.00;;;22.40;99.90;;;;;;6256716;27;84442;-65
2022/10/24 02:46:16;;;;;;;11.50;10.40;;;22.40;99.90;;;;;;6258564;27;83980;-65
2022/10/24 02:49:20;;;;;;;11.82;10.73;;;22.40;99.90;;;;;;6259136;27;84876;-65
2022/10/24 02:52:22;;;;;;;12.10;10.85;;;22.40;99.90;;;;;;6258895;27;84004;-65
2022/10/24 02:55:25;;;;;;;12.02;10.82;;;22.40;99.90;;;;;;6259160;27;84027;-65
2022/10/24 02:58:27;;;;;;;12.18;10.98;;;22.40;99.90;;;;;;6236381;27;84057;-66
2022/10/24 03:01:29;;;;;;;11.95;10.75;;;22.40;99.90;;;;;;6248630;27;84337;-65
2022/10/24 03:04:32;;;;;;;13.88;11.02;;;22.30;99.90;;;;;;6261126;27;83978;-65
2022/10/24 03:07:34;;;;;;;14.27;11.02;;;22.40;99.90;;;;;;6282250;27;84323;-65
2022/10/24 03:10:36;;;;;;;12.23;10.93;;;22.40;99.90;;;;;;6264373;27;84050;-65
2022/10/24 03:13:38;;;;;;;11.77;10.57;;;22.40;99.90;;;;;;6258552;27;83975;-65
2022/10/24 03:16:40;;;;;;;12.48;11.18;;;22.40;99.90;;;;;;6257838;27;84009;-65
2022/10/24 03:19:44;;;;;;;12.18;10.98;;;22.40;99.90;;;;;;6258496;27;85021;-64
2022/10/24 03:22:46;;;;;;;11.98;10.80;;;22.40;99.90;;;;;;6251278;27;84124;-65
2022/10/24 03:25:48;;;;;;;12.10;10.90;;;22.40;99.90;;;;;;6245437;27;82772;-65
2022/10/24 03:28:50;;;;;;;11.60;10.48;;;22.40;99.90;;;;;;6257426;27;84092;-64
2022/10/24 03:31:52;;;;;;;11.73;10.63;;;22.30;99.90;;;;;;6259225;27;83778;-65
2022/10/24 03:34:55;;;;;;;11.95;10.85;;;22.40;99.90;;;;;;6257204;27;83927;-64
2022/10/24 03:37:57;;;;;;;12.05;10.85;;;22.30;99.90;;;;;;6250665;27;84123;-64
2022/10/24 03:40:59;;;;;;;11.25;10.25;;;22.30;99.90;;;;;;6274189;27;83866;-65
2022/10/24 03:44:01;;;;;;;11.50;10.35;;;22.40;99.90;;;;;;6266070;27;84110;-64
2022/10/24 03:47:03;;;;;;;11.88;10.77;;;22.30;99.90;;;;;;6265905;27;84424;-64
2022/10/24 03:50:08;;;;;;;11.85;10.65;;;22.40;99.90;;;;;;6269125;27;85270;-65
2022/10/24 03:53:10;;;;;;;12.20;10.93;;;22.30;99.90;;;;;;6257122;27;84033;-65
2022/10/24 03:56:12;;;;;;;11.40;10.15;;;22.30;99.90;;;;;;6253575;27;82953;-64
2022/10/24 03:59:14;;;;;;;10.95;9.90;;;22.40;99.90;;;;;;6252751;27;83960;-65
2022/10/24 04:02:16;;;;;;;11.88;10.70;;;22.30;99.90;;;;;;6265980;27;83982;-64
2022/10/24 04:05:20;;;;;;;11.43;10.32;;;22.40;99.90;;;;;;6259485;27;82793;-65
2022/10/24 04:08:22;;;;;;;10.88;9.77;;;22.40;99.90;;;;;;6261916;27;84202;-65
2022/10/24 04:11:24;;;;;;;11.07;10.07;;;22.40;99.90;;;;;;6249743;27;83260;-65
2022/10/24 04:14:26;;;;;;;11.32;10.30;;;22.40;99.90;;;;;;6240087;27;83969;-65
2022/10/24 04:17:28;;;;;;;11.60;10.50;;;22.50;99.90;;;;;;6268573;27;84586;-65
2022/10/24 04:20:32;;;;;;;11.60;10.50;;;22.50;99.90;;;;;;6273148;27;85346;-65
2022/10/24 04:23:39;;;;;;;10.70;9.70;;;22.40;99.90;;;;;;6261906;27;84110;-65
2022/10/24 04:26:41;;;;;;;11.43;10.32;;;22.50;99.90;;;;;;6249490;27;85155;-65
2022/10/24 04:29:43;;;;;;;11.27;10.27;;;22.40;99.90;;;;;;6261642;27;82855;-65
2022/10/24 04:32:45;;;;;;;11.27;10.20;;;22.50;99.90;;;;;;6261291;27;84046;-65
2022/10/24 04:35:50;;;;;;;11.48;10.38;;;22.50;99.90;;;;;;6262710;27;83975;-64
2022/10/24 04:38:52;;;;;;;10.63;9.63;;;22.40;99.90;;;;;;6272454;27;84265;-64
2022/10/24 04:41:54;;;;;;;10.85;9.85;;;22.50;99.90;;;;;;6272007;27;83392;-64
2022/10/24 04:44:56;;;;;;;10.90;9.88;;;22.50;99.90;;;;;;6262261;27;84164;-64
2022/10/24 04:47:58;;;;;;;11.15;10.05;;;22.50;99.90;;;;;;6260774;27;84042;-65
2022/10/24 04:51:02;;;;;;;10.68;9.68;;;22.50;99.90;;;;;;6248578;27;85033;-65
2022/10/24 04:54:04;;;;;;;11.10;10.10;;;22.40;99.90;;;;;;6261241;27;82917;-65
2022/10/24 04:57:06;;;;;;;10.80;9.77;;;22.50;99.90;;;;;;6249313;27;84157;-65
2022/10/24 05:00:09;;;;;;;10.88;9.88;;;22.50;99.90;;;;;;6237445;27;84008;-65
2022/10/24 05:03:11;;;;;;;11.10;10.00;;;22.50;99.90;;;;;;6250102;27;84182;-65
2022/10/24 05:06:15;;;;;;;11.48;10.38;;;22.50;99.90;;;;;;6256897;27;83768;-65
2022/10/24 05:09:17;;;;;;;10.48;9.48;;;22.50;99.90;;;;;;6273172;27;84323;-65
2022/10/24 05:12:19;;;;;;;10.15;9.25;;;22.50;99.90;;;;;;6259472;27;82165;-65
2022/10/24 05:15:21;;;;;;;10.68;9.68;;;22.50;99.90;;;;;;6261711;27;84009;-64
2022/10/24 05:18:23;;;;;;;10.80;9.80;;;22.50;99.90;;;;;;6248752;27;84050;-64
2022/10/24 05:21:26;;;;;;;10.23;9.32;;;22.50;99.90;;;;;;6271027;27;85310;-64
2022/10/24 05:24:29;;;;;;;10.80;9.70;;;22.50;99.90;;;;;;6265170;27;82942;-65
2022/10/24 05:27:31;;;;;;;10.77;9.75;;;22.50;99.90;;;;;;6239784;27;82956;-65
2022/10/24 05:30:33;;;;;;;10.40;9.27;;;22.50;99.90;;;;;;6261547;27;83955;-64
2022/10/24 05:33:35;;;;;;;10.48;9.48;;;22.50;99.90;;;;;;6262624;27;83958;-65
2022/10/24 05:36:38;;;;;;;10.30;9.38;;;22.50;99.90;;;;;;6261398;27;86127;-65
2022/10/24 05:39:40;;;;;;;10.23;9.32;;;22.50;99.90;;;;;;6260564;27;84000;-65
2022/10/24 05:42:42;;;;;;;10.27;9.38;;;22.50;99.90;;;;;;6255893;27;83278;-64
2022/10/24 05:45:45;;;;;;;10.00;9.10;;;22.50;99.90;;;;;;6261126;27;82910;-64
2022/10/24 05:48:47;;;;;;;9.73;8.82;;;22.50;99.90;;;;;;6256478;27;84028;-65
2022/10/24 05:51:50;;;;;;;10.43;9.43;;;22.50;99.90;;;;;;6262963;27;84999;-65
2022/10/24 05:54:52;;;;;;;10.80;9.57;;;22.50;99.90;;;;;;6251495;27;82966;-65
2022/10/24 05:57:54;;;;;;;10.48;9.45;;;22.50;99.90;;;;;;6249022;27;84051;-65
2022/10/24 06:00:56;;;;;;;10.02;9.13;;;22.50;99.90;;;;;;6256393;27;84360;-64
2022/10/24 06:03:58;;;;;;;10.48;9.48;;;22.50;99.90;;;;;;6251520;27;82831;-64
2022/10/24 06:07:02;;;;;;;9.88;8.88;;;22.50;99.90;;;;;;6261058;27;83930;-65
2022/10/24 06:10:06;;;;;;;9.90;9.00;;;22.50;99.90;;;;;;6242333;27;83946;-65
2022/10/24 06:13:11;;;;;;;10.32;9.32;;;22.50;99.90;;;;;;6254533;27;81942;-65
2022/10/24 06:16:13;;;;;;;10.18;9.18;;;22.50;99.90;;;;;;6260643;27;84094;-64
2022/10/24 06:19:15;;;;;;;10.27;9.27;;;22.50;99.90;;;;;;6239067;27;84099;-65
2022/10/24 06:22:19;;;;;;;10.15;9.15;;;22.50;99.90;;;;;;6250036;27;85274;-64
2022/10/24 06:25:21;;;;;;;10.00;8.75;;;22.50;99.90;;;;;;6248919;27;84018;-65
2022/10/24 06:28:23;;;;;;;9.45;8.55;;;22.50;99.90;;;;;;6245706;27;84177;-64
2022/10/24 06:31:25;;;;;;;9.93;9.00;;;22.60;99.90;;;;;;6249176;27;84205;-65
2022/10/24 06:34:28;;;;;;;9.90;8.90;;;22.60;99.90;;;;;;6241807;27;84116;-65
2022/10/24 06:37:32;;;;;;;9.15;8.32;;;22.60;99.90;;;;;;6249288;27;84037;-65
2022/10/24 06:40:36;;;;;;;9.13;8.30;;;22.60;99.90;;;;;;6249583;27;83998;-65
2022/10/24 06:43:38;;;;;;;9.15;8.30;;;22.60;99.90;;;;;;6256558;27;83188;-65
2022/10/24 06:46:40;;;;;;;9.30;8.40;;;22.60;99.90;;;;;;6249577;27;84035;-65
2022/10/24 06:49:42;;;;;;;9.32;8.43;;;22.60;99.90;;;;;;6245073;27;81922;-65
2022/10/24 06:52:46;;;;;;;9.07;8.18;;;22.60;99.90;;;;;;6255934;27;84951;-65
2022/10/24 06:55:48;;;;;;;9.10;8.27;;;22.60;99.90;;;;;;6246785;27;82631;-65
2022/10/24 06:58:50;;;;;;;9.25;8.35;;;22.70;99.90;;;;;;6243119;27;83695;-65
2022/10/24 07:01:52;;;;;;;8.48;7.68;;;22.60;99.90;;;;;;6248031;27;83997;-65
2022/10/24 07:04:54;;;;;;;9.00;8.10;;;22.60;99.90;;;;;;6237156;27;84084;-65
2022/10/24 07:07:57;;;;;;;9.30;8.40;;;22.70;99.90;;;;;;6240773;27;82819;-65
2022/10/24 07:10:59;;;;;;;8.90;8.07;;;22.70;99.90;;;;;;6252994;27;82971;-65
2022/10/24 07:14:01;;;;;;;8.38;7.57;;;22.70;99.90;;;;;;6252170;27;83328;-65
2022/10/24 07:17:04;;;;;;;8.88;7.97;;;22.70;99.90;;;;;;6257269;27;84576;-65
2022/10/24 07:20:07;;;;;;;9.52;8.52;;;22.70;99.90;;;;;;6248548;27;84163;-65
2022/10/24 07:23:10;;;;;;;9.13;8.27;;;22.70;99.90;;;;;;6254245;27;83809;-65
2022/10/24 07:26:14;;;;;;;8.73;7.93;;;22.60;99.90;;;;;;6254607;27;84057;-65
2022/10/24 07:29:17;;;;;;;8.10;7.30;;;22.70;99.90;;;;;;6257510;27;84158;-65
2022/10/24 07:32:19;;;;;;;8.45;7.70;;;22.70;99.90;;;;;;6248084;27;84242;-66
2022/10/24 07:35:22;;;;;;;8.18;7.43;;;22.70;99.90;;;;;;6238681;27;82948;-66
2022/10/24 07:38:26;;;;;;;8.63;7.82;;;22.70;99.90;;;;;;6258169;27;84066;-65
2022/10/24 07:41:30;;;;;;;8.18;7.38;;;22.70;99.90;;;;;;6256573;27;84077;-66
2022/10/24 07:44:32;;;;;;;9.20;7.85;;;22.70;99.90;;;;;;6254948;27;83355;-66
2022/10/24 07:47:34;;;;;;;8.20;7.40;;;22.70;99.90;;;;;;6258628;27;84077;-65
2022/10/24 07:50:44;;;;;;;8.10;7.30;;;22.70;99.90;;;;;;6257665;27;84033;-65
2022/10/24 07:53:48;;;;;;;9.30;7.57;;;22.70;99.90;;;;;;6255118;27;86321;-65
2022/10/24 07:56:50;;;;;;;10.55;7.95;;;22.70;99.90;;;;;;6248145;27;84099;-66
2022/10/24 07:59:52;;;;;;;7.72;7.00;;;22.60;99.90;;;;;;6254429;27;84418;-66
2022/10/24 08:02:54;;;;;;;7.97;7.18;;;22.70;99.90;;;;;;6261434;27;82848;-66
2022/10/24 08:05:56;;;;;;;8.18;7.38;;;22.70;99.90;;;;;;6252944;27;83918;-65
2022/10/24 08:08:59;;;;;;;7.75;7.05;;;22.70;99.90;;;;;;6249465;27;84323;-66
2022/10/24 08:12:01;;;;;;;7.80;7.00;;;22.70;99.90;;;;;;6251203;27;84191;-66
2022/10/24 08:15:04;;;;;;;8.00;7.20;;;22.70;99.90;;;;;;6246364;27;83437;-66
2022/10/24 08:18:06;;;;;;;8.07;7.28;;;22.70;99.90;;;;;;6248170;27;84148;-65
2022/10/24 08:21:11;;;;;;;7.72;6.97;;;22.70;99.90;;;;;;6246046;27;84026;-66
2022/10/24 08:24:14;;;;;;;7.93;7.22;;;22.70;99.90;;;;;;6249379;27;83772;-66
2022/10/24 08:27:16;;;;;;;7.95;6.95;;;22.70;99.90;;;;;;6241364;27;84062;-66
2022/10/24 08:30:19;;;;;;;7.70;6.78;;;22.70;99.90;;;;;;6241086;27;83962;-65
2022/10/24 08:33:21;;;;;;;7.45;6.78;;;22.70;99.90;;;;;;6239906;27;83879;-66
2022/10/24 08:36:25;;;;;;;7.63;6.93;;;22.70;99.90;;;;;;6249924;27;83997;-65
2022/10/24 08:39:29;;;;;;;7.53;6.57;;;22.70;99.90;;;;;;6254752;27;82976;-66
2022/10/24 08:42:31;;;;;;;7.75;6.95;;;22.70;99.90;;;;;;6241171;27;84030;-65
2022/10/24 08:45:42;;;;;;;6.82;6.22;;;22.70;99.90;;;;;;6250371;27;83202;-66
2022/10/24 08:48:51;;;;;;;7.78;7.00;;;22.60;99.90;;;;;;6262100;27;84144;-66
2022/10/24 08:51:57;;;;;;;7.80;6.97;;;22.70;99.90;;;;;;6251781;27;84259;-66
2022/10/24 08:55:08;;;;;;;7.53;6.75;;;22.70;99.90;;;;;;6255826;27;84949;-66
2022/10/24 08:58:14;;;;;;;7.55;6.85;;;22.70;99.90;;;;;;6255388;27;84076;-66
2022/10/24 09:01:27;;;;;;;6.88;6.28;;;22.70;99.90;;;;;;6248716;27;84176;-65
2022/10/24 09:04:36;;;;;;;7.70;6.90;;;22.70;99.90;;;;;;6258813;27;84102;-65
2022/10/24 09:07:38;;;;;;;7.53;6.80;;;22.70;99.90;;;;;;6246444;27;83258;-66
2022/10/24 09:10:48;;;;;;;7.28;6.57;;;22.70;99.90;;;;;;6254521;27;84005;-66
2022/10/24 09:13:50;;;;;;;6.88;6.18;;;22.70;99.90;;;;;;6246601;27;84043;-65
2022/10/24 09:16:56;;;;;;;6.78;6.18;;;22.70;99.90;;;;;;6261996;27;83236;-65
2022/10/24 09:20:06;;;;;;;7.25;6.55;;;22.70;99.90;;;;;;6248209;27;84133;-66
2022/10/24 09:23:11;;;;;;;6.78;6.07;;;22.70;99.90;;;;;;6256024;27;83039;-66
2022/10/24 09:26:18;;;;;;;6.70;6.10;;;22.70;99.90;;;;;;6260259;27;85034;-66
2022/10/24 09:29:20;;;;;;;6.32;5.80;;;22.70;99.90;;;;;;6258837;27;84208;-65
2022/10/24 09:32:25;;;;;;;7.47;6.15;;;22.70;99.90;;;;;;6247162;27;82851;-66
2022/10/24 09:35:30;;;;;;;6.50;5.90;;;22.70;99.90;;;;;;6259999;27;84161;-66
2022/10/24 09:38:34;;;;;;;6.57;5.97;;;22.70;99.90;;;;;;6252950;27;82979;-65
2022/10/24 09:41:38;;;;;;;6.20;5.70;;;22.70;99.90;;;;;;6260248;27;82995;-66
2022/10/24 09:44:42;;;;;;;6.82;6.13;;;22.70;99.90;;;;;;6259178;27;82870;-66
2022/10/24 09:47:44;;;;;;;6.40;5.80;;;22.70;99.90;;;;;;6258472;27;83491;-66
2022/10/24 09:50:49;;;;;;;6.55;5.93;;;22.70;99.90;;;;;;6246080;27;84792;-66
2022/10/24 09:54:06;;;;;;;6.53;5.93;;;22.70;99.90;;;;;;6251484;27;83995;-66
2022/10/24 09:57:16;;;;;;;6.25;5.65;;;22.70;99.90;;;;;;6257415;27;85002;-65
2022/10/24 10:00:23;;;;;;;6.90;6.30;;;22.70;99.90;;;;;;6249292;27;84028;-65
2022/10/24 10:03:27;;;;;;;6.35;5.30;;;22.70;99.90;;;;;;6259999;27;82853;-65
2022/10/24 10:06:29;;;;;;;6.90;6.20;;;22.70;99.90;;;;;;6260111;27;84500;-66
2022/10/24 10:09:33;;;;;;;5.97;5.47;;;22.70;99.90;;;;;;6260272;27;84017;-65
2022/10/24 10:12:39;;;;;;;6.07;5.57;;;22.70;99.90;;;;;;6258271;27;82975;-65
2022/10/24 10:15:47;;;;;;;6.05;5.50;;;22.70;99.90;;;;;;6258401;27;84064;-65
2022/10/24 10:18:49;;;;;;;6.82;5.95;;;22.70;99.90;;;;;;6244541;27;83516;-66
2022/10/24 10:21:54;;;;;;;6.25;5.70;;;22.70;99.90;;;;;;6249532;27;84136;-65
2022/10/24 10:24:57;;;;;;;7.78;5.78;;;22.70;99.90;;;;;;6235566;27;86246;-65
2022/10/24 10:28:00;;;;;;;7.10;5.80;;;22.70;99.90;;;;;;6257582;27;84881;-66
2022/10/24 10:31:03;;;;;;;7.00;6.20;;;22.70;99.90;;;;;;6244546;27;85099;-65
2022/10/24 10:34:23;;;;;;;6.38;5.50;;;22.70;99.90;;;;;;6239294;27;84284;-66
2022/10/24 10:37:28;;;;;;;6.07;5.50;;;22.70;99.90;;;;;;6242473;27;82978;-65
2022/10/24 10:40:37;;;;;;;6.35;5.75;;;22.80;99.90;;;;;;6249091;27;84137;-65
2022/10/24 10:43:47;;;;;;;5.80;5.30;;;22.80;99.90;;;;;;6247764;27;84013;-65
2022/10/24 10:47:01;;;;;;;6.20;5.60;;;22.70;99.90;;;;;;6252197;27;84000;-65
2022/10/24 10:50:22;;;;;;;6.30;5.70;;;22.70;99.90;;;;;;6250807;27;82273;-65
2022/10/24 10:53:35;;;;;;;5.90;5.32;;;22.80;99.90;;;;;;6250579;27;83989;-65
2022/10/24 10:56:46;;;;;;;5.65;5.15;;;22.70;99.90;;;;;;6257392;27;82908;-65
2022/10/24 10:59:57;;;;;;;6.05;5.45;;;22.80;99.90;;;;;;6246793;27;84882;-66
2022/10/24 11:03:12;;;;;;;6.10;5.38;;;22.70;99.90;;;;;;6250883;27;83312;-66
2022/10/24 11:06:32;;;;;;;5.63;5.13;;;22.80;99.90;;;;;;6248002;27;83964;-66
2022/10/24 11:09:39;;;;;;;6.05;5.45;;;22.70;99.90;;;;;;6259685;27;84210;-66
2022/10/24 11:12:43;;;;;;;7.25;6.10;;;22.70;99.90;;;;;;6248152;27;84169;-66
2022/10/24 11:15:52;;;;;;;6.03;5.43;;;22.80;99.90;;;;;;6253634;27;84094;-66
2022/10/24 11:18:59;;;;;;;6.40;5.40;;;22.80;99.90;;;;;;6253286;27;84328;-66
2022/10/24 11:22:04;;;;;;;6.00;5.40;;;22.70;99.90;;;;;;6249205;27;83530;-66
2022/10/24 11:25:17;;;;;;;5.80;5.20;;;22.70;99.90;;;;;;6249783;27;82842;-66
2022/10/24 11:28:26;;;;;;;5.75;5.25;;;22.70;99.90;;;;;;6256046;27;83949;-65
2022/10/24 11:31:36;;;;;;;5.32;4.82;;;22.70;99.90;;;;;;6249597;27;84953;-65
2022/10/24 11:34:45;;;;;;;6.15;5.00;;;22.70;99.90;;;;;;6261918;27;84181;-65
2022/10/24 11:37:50;;;;;;;5.88;5.28;;;22.80;99.90;;;;;;6243362;27;83088;-66
2022/10/24 11:40:56;;;;;;;5.20;4.72;;;22.80;99.90;;;;;;6255573;27;84042;-66
2022/10/24 11:44:05;;;;;;;5.45;4.95;;;22.70;99.90;;;;;;6254252;27;84063;-65
2022/10/24 11:47:37;;;;;;;5.43;4.85;;;22.80;99.90;;;;;;6251784;27;84059;-66
2022/10/24 11:50:46;;;;;;;5.10;4.60;;;22.80;99.90;;;;;;6244617;27;84027;-66
2022/10/24 11:53:55;;;;;;;4.97;4.50;;;22.70;99.90;;;;;;6258334;27;83109;-66
2022/10/24 11:57:02;;;;;;;5.45;4.95;;;22.80;99.90;;;;;;6247547;27;83983;-65
2022/10/24 12:00:05;;;;;;;5.72;4.90;;;22.70;99.90;;;;;;6258504;27;84043;-66
2022/10/24 12:03:46;;;;;;;5.35;4.85;;;22.80;99.90;;;;;;6257651;27;84869;-66
2022/10/24 12:07:12;;;;;;;5.38;4.88;;;22.80;99.90;;;;;;6256629;27;84140;-66
2022/10/24 12:10:38;;;;;;;5.45;4.95;;;22.80;99.90;;;;;;6254133;27;85045;-65
2022/10/24 12:14:12;;;;;;;5.50;5.00;;;22.80;99.90;;;;;;6244362;27;84068;-66
2022/10/24 12:17:40;;;;;;;5.63;5.10;;;22.80;99.90;;;;;;6241792;27;82927;-65
2022/10/24 12:20:44;;;;;;;5.15;4.65;;;22.80;99.90;;;;;;6233836;27;84105;-66
2022/10/24 12:23:54;;;;;;;5.78;5.00;;;22.80;99.90;;;;;;6257397;27;84031;-66
2022/10/24 12:27:01;;;;;;;5.72;5.18;;;22.70;99.90;;;;;;6259088;27;83421;-66
2022/10/24 12:30:14;;;;;;;5.50;5.00;;;22.80;99.90;;;;;;6267496;27;84073;-66
2022/10/24 12:33:25;;;;;;;6.05;5.15;;;22.80;99.90;;;;;;6254621;27;82824;-66
2022/10/24 12:36:57;;;;;;;5.10;4.60;;;22.80;99.90;;;;;;6257708;27;84943;-66
2022/10/24 12:40:39;;;;;;;5.10;4.60;;;22.80;99.90;;;;;;6257766;27;83954;-65
2022/10/24 12:43:43;;;;;;;5.18;4.68;;;22.80;99.90;;;;;;6256045;27;84263;-66
2022/10/24 12:46:54;;;;;;;5.15;4.65;;;22.80;99.90;;;;;;6260304;27;84030;-66
2022/10/24 12:49:58;;;;;;;5.07;4.57;;;22.80;99.90;;;;;;6261397;27;82889;-66
2022/10/24 12:53:15;;;;;;;4.90;4.50;;;22.80;99.90;;;;;;6261075;27;82976;-66
2022/10/24 12:56:19;;;;;;;5.05;4.55;;;22.80;99.90;;;;;;6260121;27;84430;-66
2022/10/24 12:59:24;;;;;;;5.00;4.50;;;22.70;99.90;;;;;;6261831;27;83349;-67
2022/10/24 13:02:49;;;;;;;4.93;4.53;;;22.80;99.90;;;;;;6251191;27;84224;-66
2022/10/24 13:06:02;;;;;;;5.32;4.82;;;22.80;99.90;;;;;;6259820;27;83999;-66
2022/10/24 13:09:18;;;;;;;5.20;4.70;;;22.80;99.90;;;;;;6256340;27;85026;-66
2022/10/24 13:12:40;;;;;;;5.07;4.30;;;22.80;99.90;;;;;;6253156;27;84122;-66
2022/10/24 13:15:51;;;;;;;5.47;4.90;;;22.70;99.90;;;;;;6246285;27;82735;-66
2022/10/24 13:19:04;;;;;;;5.22;4.72;;;22.70;99.90;;;;;;6242624;27;84034;-66
2022/10/24 13:22:26;;;;;;;5.20;4.70;;;22.70;99.90;;;;;;6240379;27;84008;-66
2022/10/24 13:25:33;;;;;;;5.00;4.57;;;22.70;99.90;;;;;;6245858;27;82934;-67
2022/10/24 13:28:42;;;;;;;5.35;4.85;;;22.80;99.90;;;;;;6240769;27;84122;-66
2022/10/24 13:31:50;;;;;;;4.90;4.40;;;22.80;99.90;;;;;;6268238;27;83416;-66
2022/10/24 13:34:54;;;;;;;4.72;4.32;;;22.80;99.90;;;;;;6252786;27;84016;-66
2022/10/24 13:37:57;;;;;;;4.82;4.43;;;22.80;99.90;;;;;;6256476;27;84193;-66
2022/10/24 13:41:00;;;;;;;4.68;4.28;;;22.80;99.90;;;;;;6259225;27;85503;-66
2022/10/24 13:44:08;;;;;;;4.68;4.28;;;22.80;99.90;;;;;;6251263;27;84352;-66
2022/10/24 13:47:18;;;;;;;4.68;4.28;;;22.80;99.90;;;;;;6252299;27;84683;-66
2022/10/24 13:50:23;;;;;;;4.78;4.38;;;22.80;99.90;;;;;;6259999;27;84281;-66
2022/10/24 13:53:30;;;;;;;5.50;4.95;;;22.90;99.90;;;;;;6248731;27;84025;-67
2022/10/24 13:56:37;;;;;;;4.70;4.30;;;22.90;99.90;;;;;;6243910;27;82958;-66
2022/10/24 13:59:41;;;;;;;5.00;4.53;;;22.80;99.90;;;;;;6259773;27;83981;-67
2022/10/24 14:02:43;;;;;;;5.28;4.78;;;22.80;99.90;;;;;;6246468;27;83317;-66
2022/10/24 14:05:48;;;;;;;5.00;4.60;;;22.90;99.90;;;;;;6253077;27;84061;-66
2022/10/24 14:08:52;;;;;;;4.80;4.40;;;22.80;99.90;;;;;;6249124;27;84021;-67
2022/10/24 14:11:56;;;;;;;4.60;4.20;;;22.90;99.90;;;;;;6253926;27;85160;-66
2022/10/24 14:15:01;;;;;;;4.72;4.32;;;22.80;99.90;;;;;;6252353;27;84318;-66
2022/10/24 14:18:13;;;;;;;4.60;4.20;;;22.90;99.90;;;;;;6252657;27;83875;-66
2022/10/24 14:21:18;;;;;;;4.75;4.35;;;22.80;99.90;;;;;;6246444;27;84349;-66
2022/10/24 14:24:22;;;;;;;4.82;4.43;;;22.90;99.90;;;;;;6258929;27;84336;-66
2022/10/24 14:27:25;;;;;;;4.88;4.47;;;22.90;99.90;;;;;;6249785;27;84068;-67
2022/10/24 14:30:30;;;;;;;5.18;4.68;;;22.90;99.90;;;;;;6237108;27;84122;-66
2022/10/24 14:33:43;;;;;;;4.82;4.43;;;22.90;99.90;;;;;;6241752;27;82181;-66
2022/10/24 14:36:45;;;;;;;5.07;4.57;;;22.90;99.90;;;;;;6248344;27;84439;-66
2022/10/24 14:39:47;;;;;;;4.75;4.25;;;22.90;99.90;;;;;;6247776;27;84027;-66
2022/10/24 14:42:50;;;;;;;4.82;4.43;;;22.90;99.90;;;;;;6239859;27;85426;-66
2022/10/24 14:46:35;;;;;;;4.32;3.92;;;22.90;99.90;;;;;;6238230;27;83992;-67
2022/10/24 14:49:37;;;;;;;4.65;4.25;;;22.90;99.90;;;;;;6238006;27;84113;-66
2022/10/24 14:52:44;;;;;;;5.13;4.63;;;22.90;99.90;;;;;;6240543;27;84038;-66
2022/10/24 14:55:50;;;;;;;4.82;4.43;;;22.90;99.90;;;;;;6247616;27;84008;-67
2022/10/24 14:58:54;;;;;;;4.60;4.20;;;22.90;99.90;;;;;;6256055;27;84006;-67
2022/10/24 15:02:01;;;;;;;4.43;4.03;;;22.90;99.90;;;;;;6255111;27;84084;-67
2022/10/24 15:05:27;;;;;;;4.45;4.05;;;22.80;99.90;;;;;;6258020;27;83802;-66
2022/10/24 15:08:36;;;;;;;4.60;4.20;;;22.90;99.90;;;;;;6250150;27;84032;-67
2022/10/24 15:11:40;;;;;;;4.60;4.20;;;22.90;99.90;;;;;;6254177;27;86534;-67
2022/10/24 15:14:46;;;;;;;4.57;4.18;;;22.90;99.90;;;;;;6248976;27;84134;-67
2022/10/24 15:17:50;;;;;;;4.50;4.10;;;22.90;99.90;;;;;;6246158;27;84012;-66
2022/10/24 15:20:58;;;;;;;4.88;4.38;;;22.90;99.90;;;;;;6242069;27;84141;-68
2022/10/24 15:24:01;;;;;;;4.68;4.20;;;22.90;99.90;;;;;;6255780;27;84087;-67
2022/10/24 15:27:11;;;;;;;5.03;4.53;;;23.00;99.90;;;;;;6244401;27;84324;-68
2022/10/24 15:30:15;;;;;;;4.78;4.35;;;23.00;99.90;;;;;;6232745;27;83089;-66
2022/10/24 15:33:19;;;;;;;4.85;4.35;;;23.00;99.90;;;;;;6243646;27;83965;-67
2022/10/24 15:36:23;;;;;;;4.90;4.18;;;23.00;99.90;;;;;;6266838;27;82210;-66
2022/10/24 15:39:25;;;;;;;4.70;4.30;;;22.90;99.90;;;;;;6262155;27;84234;-67
2022/10/24 15:42:27;;;;;;;4.40;4.00;;;22.90;99.90;;;;;;6253542;27;84461;-67
2022/10/24 15:45:29;;;;;;;4.80;4.38;;;23.00;99.90;;;;;;6253869;27;84978;-66
2022/10/24 15:48:33;;;;;;;4.90;4.50;;;22.90;99.90;;;;;;6250840;27;84178;-67
2022/10/24 15:51:37;;;;;;;4.20;3.85;;;23.00;99.90;;;;;;6248803;27;84381;-66
2022/10/24 15:54:40;;;;;;;4.50;4.10;;;23.00;99.90;;;;;;6255962;27;84122;-66
2022/10/24 15:57:43;;;;;;;4.63;4.22;;;23.00;99.90;;;;;;6242489;27;82786;-67
2022/10/24 16:00:45;;;;;;;4.45;4.05;;;22.90;99.90;;;;;;6249526;27;84079;-67